sensor_id;sensor_type;location;lat;lon;timestamp;P1;durP1;ratioP1;P2;durP2;ratioP2
23496;SDS011;11925;48.122;11.560;2023-11-18T00:00:30;138.10;;;65.78;;
23496;SDS011;11925;48.122;11.560;2023-11-18T00:02:59;75.00;;;39.42;;
23496;SDS011;11925;48.122;11.560;2023-11-18T00:05:29;73.25;;;37.97;;
23496;SDS011;11925;48.122;11.560;2023-11-18T00:07:57;57.70;;;28.85;;
23496;SDS011;11925;48.122;11.560;2023-11-18T00:10:26;35.72;;;19.83;;
23496;SDS011;11925;48.122;11.560;2023-11-18T00:12:56;27.70;;;14.98;;
23496;SDS011;11925;48.122;11.560;2023-11-18T00:15:24;20.38;;;11.45;;
23496;SDS011;11925;48.122;11.560;2023-11-18T00:17:53;17.30;;;9.60;;
23496;SDS011;11925;48.122;11.560;2023-11-18T00:20:21;72.03;;;38.72;;
23496;SDS011;11925;48.122;11.560;2023-11-18T00:22:52;71.25;;;38.13;;
23496;SDS011;11925;48.122;11.560;2023-11-18T00:25:21;105.97;;;53.33;;
23496;SDS011;11925;48.122;11.560;2023-11-18T00:27:50;136.85;;;68.43;;
23496;SDS011;11925;48.122;11.560;2023-11-18T00:30:18;65.28;;;36.25;;
23496;SDS011;11925;48.122;11.560;2023-11-18T00:32:47;43.00;;;22.98;;
23496;SDS011;11925;48.122;11.560;2023-11-18T00:35:16;59.63;;;31.98;;
23496;SDS011;11925;48.122;11.560;2023-11-18T00:37:47;94.47;;;48.05;;
23496;SDS011;11925;48.122;11.560;2023-11-18T00:40:17;133.38;;;69.65;;
23496;SDS011;11925;48.122;11.560;2023-11-18T00:42:45;196.82;;;96.35;;
23496;SDS011;11925;48.122;11.560;2023-11-18T00:45:13;159.40;;;74.38;;
23496;SDS011;11925;48.122;11.560;2023-11-18T00:47:42;85.25;;;41.03;;
23496;SDS011;11925;48.122;11.560;2023-11-18T00:50:11;59.40;;;27.58;;
23496;SDS011;11925;48.122;11.560;2023-11-18T00:52:39;30.88;;;17.23;;
23496;SDS011;11925;48.122;11.560;2023-11-18T00:55:09;24.60;;;12.55;;
23496;SDS011;11925;48.122;11.560;2023-11-18T00:57:39;18.80;;;9.07;;
23496;SDS011;11925;48.122;11.560;2023-11-18T01:00:08;12.52;;;6.78;;
23496;SDS011;11925;48.122;11.560;2023-11-18T01:02:43;10.60;;;5.55;;
23496;SDS011;11925;48.122;11.560;2023-11-18T01:05:13;8.65;;;4.53;;
23496;SDS011;11925;48.122;11.560;2023-11-18T01:07:42;5.75;;;3.67;;
23496;SDS011;11925;48.122;11.560;2023-11-18T01:10:11;5.82;;;3.00;;
23496;SDS011;11925;48.122;11.560;2023-11-18T01:12:42;5.30;;;3.00;;
23496;SDS011;11925;48.122;11.560;2023-11-18T01:15:12;4.55;;;2.85;;
23496;SDS011;11925;48.122;11.560;2023-11-18T01:17:41;4.40;;;2.35;;
23496;SDS011;11925;48.122;11.560;2023-11-18T01:20:10;3.30;;;2.10;;
23496;SDS011;11925;48.122;11.560;2023-11-18T01:22:40;2.60;;;1.80;;
23496;SDS011;11925;48.122;11.560;2023-11-18T01:25:11;2.70;;;1.88;;
23496;SDS011;11925;48.122;11.560;2023-11-18T01:27:39;1.92;;;1.50;;
23496;SDS011;11925;48.122;11.560;2023-11-18T01:30:09;1.83;;;1.38;;
23496;SDS011;11925;48.122;11.560;2023-11-18T01:32:39;1.83;;;1.40;;
23496;SDS011;11925;48.122;11.560;2023-11-18T01:35:10;1.88;;;1.20;;
23496;SDS011;11925;48.122;11.560;2023-11-18T01:37:39;2.47;;;1.42;;
23496;SDS011;11925;48.122;11.560;2023-11-18T01:40:08;1.90;;;1.38;;
23496;SDS011;11925;48.122;11.560;2023-11-18T01:42:42;2.10;;;1.33;;
23496;SDS011;11925;48.122;11.560;2023-11-18T01:45:13;2.00;;;1.35;;
23496;SDS011;11925;48.122;11.560;2023-11-18T01:47:43;1.40;;;1.00;;
23496;SDS011;11925;48.122;11.560;2023-11-18T01:50:15;1.67;;;1.20;;
23496;SDS011;11925;48.122;11.560;2023-11-18T01:52:45;1.80;;;1.23;;
23496;SDS011;11925;48.122;11.560;2023-11-18T01:55:14;1.40;;;1.05;;
23496;SDS011;11925;48.122;11.560;2023-11-18T01:57:45;1.67;;;1.17;;
23496;SDS011;11925;48.122;11.560;2023-11-18T02:00:13;1.38;;;1.10;;
23496;SDS011;11925;48.122;11.560;2023-11-18T02:02:44;1.42;;;1.17;;
23496;SDS011;11925;48.122;11.560;2023-11-18T02:05:13;2.10;;;1.40;;
23496;SDS011;11925;48.122;11.560;2023-11-18T02:07:43;1.52;;;1.10;;
23496;SDS011;11925;48.122;11.560;2023-11-18T02:10:12;1.58;;;1.35;;
23496;SDS011;11925;48.122;11.560;2023-11-18T02:12:43;2.17;;;1.50;;
23496;SDS011;11925;48.122;11.560;2023-11-18T02:15:19;1.92;;;1.38;;
23496;SDS011;11925;48.122;11.560;2023-11-18T02:17:50;1.92;;;1.25;;
23496;SDS011;11925;48.122;11.560;2023-11-18T02:20:21;2.03;;;1.35;;
23496;SDS011;11925;48.122;11.560;2023-11-18T02:22:50;1.70;;;1.23;;
23496;SDS011;11925;48.122;11.560;2023-11-18T02:25:19;1.83;;;1.40;;
23496;SDS011;11925;48.122;11.560;2023-11-18T02:27:55;2.00;;;1.70;;
23496;SDS011;11925;48.122;11.560;2023-11-18T02:30:24;1.55;;;1.27;;
23496;SDS011;11925;48.122;11.560;2023-11-18T02:32:56;2.00;;;1.35;;
23496;SDS011;11925;48.122;11.560;2023-11-18T02:35:30;1.83;;;1.30;;
23496;SDS011;11925;48.122;11.560;2023-11-18T02:38:01;1.83;;;1.10;;
23496;SDS011;11925;48.122;11.560;2023-11-18T02:40:34;1.30;;;1.10;;
23496;SDS011;11925;48.122;11.560;2023-11-18T02:45:36;1.50;;;1.27;;
23496;SDS011;11925;48.122;11.560;2023-11-18T02:48:06;2.30;;;1.60;;
23496;SDS011;11925;48.122;11.560;2023-11-18T02:50:35;2.17;;;1.30;;
23496;SDS011;11925;48.122;11.560;2023-11-18T02:53:03;1.85;;;1.40;;
23496;SDS011;11925;48.122;11.560;2023-11-18T02:55:32;1.80;;;1.30;;
23496;SDS011;11925;48.122;11.560;2023-11-18T02:58:01;2.05;;;1.48;;
23496;SDS011;11925;48.122;11.560;2023-11-18T03:00:34;1.80;;;1.35;;
23496;SDS011;11925;48.122;11.560;2023-11-18T03:03:04;1.70;;;1.40;;
23496;SDS011;11925;48.122;11.560;2023-11-18T03:05:33;1.38;;;1.10;;
23496;SDS011;11925;48.122;11.560;2023-11-18T03:08:03;2.35;;;1.20;;
23496;SDS011;11925;48.122;11.560;2023-11-18T03:10:33;1.80;;;1.48;;
23496;SDS011;11925;48.122;11.560;2023-11-18T03:13:02;3.95;;;1.35;;
23496;SDS011;11925;48.122;11.560;2023-11-18T03:15:30;1.52;;;1.25;;
23496;SDS011;11925;48.122;11.560;2023-11-18T03:18:00;2.17;;;1.70;;
23496;SDS011;11925;48.122;11.560;2023-11-18T03:20:28;1.60;;;1.30;;
23496;SDS011;11925;48.122;11.560;2023-11-18T03:22:58;2.20;;;1.42;;
23496;SDS011;11925;48.122;11.560;2023-11-18T03:25:27;1.73;;;1.25;;
23496;SDS011;11925;48.122;11.560;2023-11-18T03:27:56;2.63;;;1.55;;
23496;SDS011;11925;48.122;11.560;2023-11-18T03:30:25;2.20;;;1.38;;
23496;SDS011;11925;48.122;11.560;2023-11-18T03:32:55;2.70;;;1.50;;
23496;SDS011;11925;48.122;11.560;2023-11-18T03:35:25;2.20;;;1.48;;
23496;SDS011;11925;48.122;11.560;2023-11-18T03:37:54;2.03;;;1.50;;
23496;SDS011;11925;48.122;11.560;2023-11-18T03:40:22;1.90;;;1.50;;
23496;SDS011;11925;48.122;11.560;2023-11-18T03:42:51;1.80;;;1.23;;
23496;SDS011;11925;48.122;11.560;2023-11-18T03:45:20;3.58;;;1.70;;
23496;SDS011;11925;48.122;11.560;2023-11-18T03:47:49;2.55;;;1.80;;
23496;SDS011;11925;48.122;11.560;2023-11-18T03:50:18;1.95;;;1.50;;
23496;SDS011;11925;48.122;11.560;2023-11-18T03:52:47;2.33;;;1.50;;
23496;SDS011;11925;48.122;11.560;2023-11-18T03:55:16;2.60;;;1.73;;
23496;SDS011;11925;48.122;11.560;2023-11-18T03:57:46;3.33;;;1.45;;
23496;SDS011;11925;48.122;11.560;2023-11-18T04:00:15;1.98;;;1.60;;
23496;SDS011;11925;48.122;11.560;2023-11-18T04:02:44;2.08;;;1.58;;
23496;SDS011;11925;48.122;11.560;2023-11-18T04:05:13;2.90;;;1.90;;
23496;SDS011;11925;48.122;11.560;2023-11-18T04:07:42;2.85;;;2.22;;
23496;SDS011;11925;48.122;11.560;2023-11-18T04:10:12;2.17;;;1.85;;
23496;SDS011;11925;48.122;11.560;2023-11-18T04:12:44;2.92;;;2.22;;
23496;SDS011;11925;48.122;11.560;2023-11-18T04:15:14;2.53;;;2.20;;
23496;SDS011;11925;48.122;11.560;2023-11-18T04:17:43;3.25;;;2.50;;
23496;SDS011;11925;48.122;11.560;2023-11-18T04:20:11;3.20;;;2.22;;
23496;SDS011;11925;48.122;11.560;2023-11-18T04:22:43;2.88;;;2.40;;
23496;SDS011;11925;48.122;11.560;2023-11-18T04:25:13;2.95;;;2.13;;
23496;SDS011;11925;48.122;11.560;2023-11-18T04:27:41;3.20;;;2.17;;
23496;SDS011;11925;48.122;11.560;2023-11-18T04:30:13;3.05;;;2.28;;
23496;SDS011;11925;48.122;11.560;2023-11-18T04:32:41;3.72;;;2.00;;
23496;SDS011;11925;48.122;11.560;2023-11-18T04:35:10;2.70;;;2.20;;
23496;SDS011;11925;48.122;11.560;2023-11-18T04:37:39;3.30;;;2.40;;
23496;SDS011;11925;48.122;11.560;2023-11-18T04:40:10;2.53;;;2.07;;
23496;SDS011;11925;48.122;11.560;2023-11-18T04:42:40;2.65;;;2.03;;
23496;SDS011;11925;48.122;11.560;2023-11-18T04:45:11;2.45;;;1.90;;
23496;SDS011;11925;48.122;11.560;2023-11-18T04:47:41;3.80;;;2.33;;
23496;SDS011;11925;48.122;11.560;2023-11-18T04:50:11;3.73;;;2.23;;
23496;SDS011;11925;48.122;11.560;2023-11-18T04:52:41;2.78;;;2.25;;
23496;SDS011;11925;48.122;11.560;2023-11-18T04:55:09;3.47;;;2.35;;
23496;SDS011;11925;48.122;11.560;2023-11-18T04:57:41;2.75;;;2.00;;
23496;SDS011;11925;48.122;11.560;2023-11-18T05:00:10;2.83;;;2.17;;
23496;SDS011;11925;48.122;11.560;2023-11-18T05:02:43;3.83;;;2.35;;
23496;SDS011;11925;48.122;11.560;2023-11-18T05:05:14;3.33;;;2.33;;
23496;SDS011;11925;48.122;11.560;2023-11-18T05:07:43;3.08;;;1.98;;
23496;SDS011;11925;48.122;11.560;2023-11-18T05:10:12;3.13;;;1.90;;
23496;SDS011;11925;48.122;11.560;2023-11-18T05:12:42;3.55;;;2.10;;
23496;SDS011;11925;48.122;11.560;2023-11-18T05:15:11;3.25;;;2.25;;
23496;SDS011;11925;48.122;11.560;2023-11-18T05:17:39;3.00;;;2.10;;
23496;SDS011;11925;48.122;11.560;2023-11-18T05:20:08;3.17;;;2.47;;
23496;SDS011;11925;48.122;11.560;2023-11-18T05:22:38;3.28;;;2.22;;
23496;SDS011;11925;48.122;11.560;2023-11-18T05:25:06;3.33;;;2.28;;
23496;SDS011;11925;48.122;11.560;2023-11-18T05:27:41;4.47;;;2.40;;
23496;SDS011;11925;48.122;11.560;2023-11-18T05:30:11;3.58;;;2.30;;
23496;SDS011;11925;48.122;11.560;2023-11-18T05:32:39;3.30;;;2.40;;
23496;SDS011;11925;48.122;11.560;2023-11-18T05:35:08;3.22;;;2.45;;
23496;SDS011;11925;48.122;11.560;2023-11-18T05:37:38;3.67;;;2.63;;
23496;SDS011;11925;48.122;11.560;2023-11-18T05:40:08;3.40;;;2.30;;
23496;SDS011;11925;48.122;11.560;2023-11-18T05:42:43;2.92;;;2.20;;
23496;SDS011;11925;48.122;11.560;2023-11-18T05:45:14;3.60;;;2.60;;
23496;SDS011;11925;48.122;11.560;2023-11-18T05:47:54;3.20;;;2.08;;
23496;SDS011;11925;48.122;11.560;2023-11-18T05:50:23;3.13;;;2.17;;
23496;SDS011;11925;48.122;11.560;2023-11-18T05:52:53;3.63;;;2.50;;
23496;SDS011;11925;48.122;11.560;2023-11-18T05:55:22;2.60;;;2.20;;
23496;SDS011;11925;48.122;11.560;2023-11-18T05:57:51;2.88;;;2.35;;
23496;SDS011;11925;48.122;11.560;2023-11-18T06:00:20;3.05;;;2.05;;
23496;SDS011;11925;48.122;11.560;2023-11-18T06:03:01;3.38;;;2.40;;
23496;SDS011;11925;48.122;11.560;2023-11-18T06:05:30;3.00;;;2.20;;
23496;SDS011;11925;48.122;11.560;2023-11-18T06:08:01;2.70;;;2.20;;
23496;SDS011;11925;48.122;11.560;2023-11-18T06:10:31;2.67;;;2.03;;
23496;SDS011;11925;48.122;11.560;2023-11-18T06:13:01;3.63;;;1.92;;
23496;SDS011;11925;48.122;11.560;2023-11-18T06:15:31;3.25;;;2.03;;
23496;SDS011;11925;48.122;11.560;2023-11-18T06:18:02;3.92;;;2.00;;
23496;SDS011;11925;48.122;11.560;2023-11-18T06:20:33;3.20;;;2.30;;
23496;SDS011;11925;48.122;11.560;2023-11-18T06:23:02;3.53;;;2.53;;
23496;SDS011;11925;48.122;11.560;2023-11-18T06:25:31;3.42;;;2.10;;
23496;SDS011;11925;48.122;11.560;2023-11-18T06:28:03;2.83;;;2.17;;
23496;SDS011;11925;48.122;11.560;2023-11-18T06:30:34;2.83;;;2.10;;
23496;SDS011;11925;48.122;11.560;2023-11-18T06:33:03;3.95;;;2.20;;
23496;SDS011;11925;48.122;11.560;2023-11-18T06:35:31;2.67;;;2.00;;
23496;SDS011;11925;48.122;11.560;2023-11-18T06:38:01;2.67;;;1.67;;
23496;SDS011;11925;48.122;11.560;2023-11-18T06:40:29;4.72;;;2.10;;
23496;SDS011;11925;48.122;11.560;2023-11-18T06:42:57;2.65;;;1.80;;
23496;SDS011;11925;48.122;11.560;2023-11-18T06:45:30;2.88;;;2.05;;
23496;SDS011;11925;48.122;11.560;2023-11-18T06:47:59;2.83;;;2.17;;
23496;SDS011;11925;48.122;11.560;2023-11-18T06:50:27;3.92;;;2.15;;
23496;SDS011;11925;48.122;11.560;2023-11-18T06:52:56;2.53;;;1.60;;
23496;SDS011;11925;48.122;11.560;2023-11-18T06:55:25;4.05;;;1.85;;
23496;SDS011;11925;48.122;11.560;2023-11-18T06:57:53;3.30;;;2.03;;
23496;SDS011;11925;48.122;11.560;2023-11-18T07:00:23;3.38;;;1.88;;
23496;SDS011;11925;48.122;11.560;2023-11-18T07:02:56;2.75;;;1.98;;
23496;SDS011;11925;48.122;11.560;2023-11-18T07:05:24;2.90;;;2.03;;
23496;SDS011;11925;48.122;11.560;2023-11-18T07:07:53;2.58;;;1.73;;
23496;SDS011;11925;48.122;11.560;2023-11-18T07:10:21;3.88;;;2.20;;
23496;SDS011;11925;48.122;11.560;2023-11-18T07:12:49;4.03;;;2.30;;
23496;SDS011;11925;48.122;11.560;2023-11-18T07:15:18;3.58;;;2.10;;
23496;SDS011;11925;48.122;11.560;2023-11-18T07:17:47;3.58;;;2.00;;
23496;SDS011;11925;48.122;11.560;2023-11-18T07:20:17;3.55;;;2.20;;
23496;SDS011;11925;48.122;11.560;2023-11-18T07:22:45;3.33;;;2.13;;
23496;SDS011;11925;48.122;11.560;2023-11-18T07:25:13;3.20;;;2.03;;
23496;SDS011;11925;48.122;11.560;2023-11-18T07:27:42;3.90;;;2.22;;
23496;SDS011;11925;48.122;11.560;2023-11-18T07:30:10;3.10;;;2.30;;
23496;SDS011;11925;48.122;11.560;2023-11-18T07:32:40;5.30;;;2.30;;
23496;SDS011;11925;48.122;11.560;2023-11-18T07:35:08;3.40;;;2.10;;
23496;SDS011;11925;48.122;11.560;2023-11-18T07:37:39;4.72;;;2.35;;
23496;SDS011;11925;48.122;11.560;2023-11-18T07:40:08;3.17;;;2.08;;
23496;SDS011;11925;48.122;11.560;2023-11-18T07:42:38;3.13;;;2.10;;
23496;SDS011;11925;48.122;11.560;2023-11-18T07:45:08;2.88;;;2.10;;
23496;SDS011;11925;48.122;11.560;2023-11-18T07:47:44;4.18;;;2.40;;
23496;SDS011;11925;48.122;11.560;2023-11-18T07:50:15;3.88;;;2.10;;
23496;SDS011;11925;48.122;11.560;2023-11-18T07:52:45;3.67;;;2.50;;
23496;SDS011;11925;48.122;11.560;2023-11-18T07:55:14;3.05;;;2.10;;
23496;SDS011;11925;48.122;11.560;2023-11-18T07:57:42;3.58;;;2.20;;
23496;SDS011;11925;48.122;11.560;2023-11-18T08:00:11;3.83;;;2.55;;
23496;SDS011;11925;48.122;11.560;2023-11-18T08:02:42;3.58;;;2.08;;
23496;SDS011;11925;48.122;11.560;2023-11-18T08:05:11;4.13;;;2.42;;
23496;SDS011;11925;48.122;11.560;2023-11-18T08:07:42;3.38;;;2.22;;
23496;SDS011;11925;48.122;11.560;2023-11-18T08:10:13;3.20;;;2.00;;
23496;SDS011;11925;48.122;11.560;2023-11-18T08:12:46;4.80;;;2.42;;
23496;SDS011;11925;48.122;11.560;2023-11-18T08:15:14;3.03;;;2.10;;
23496;SDS011;11925;48.122;11.560;2023-11-18T08:17:43;3.42;;;2.42;;
23496;SDS011;11925;48.122;11.560;2023-11-18T08:20:11;3.75;;;2.67;;
23496;SDS011;11925;48.122;11.560;2023-11-18T08:22:42;3.47;;;2.55;;
23496;SDS011;11925;48.122;11.560;2023-11-18T08:25:13;3.92;;;2.47;;
23496;SDS011;11925;48.122;11.560;2023-11-18T08:27:44;2.90;;;2.30;;
23496;SDS011;11925;48.122;11.560;2023-11-18T08:30:13;3.42;;;2.33;;
23496;SDS011;11925;48.122;11.560;2023-11-18T08:32:45;3.70;;;2.53;;
23496;SDS011;11925;48.122;11.560;2023-11-18T08:35:14;3.05;;;2.03;;
23496;SDS011;11925;48.122;11.560;2023-11-18T08:37:43;3.40;;;2.50;;
23496;SDS011;11925;48.122;11.560;2023-11-18T08:40:14;3.50;;;2.33;;
23496;SDS011;11925;48.122;11.560;2023-11-18T08:42:44;4.35;;;2.65;;
23496;SDS011;11925;48.122;11.560;2023-11-18T08:45:17;3.20;;;2.28;;
23496;SDS011;11925;48.122;11.560;2023-11-18T08:47:48;3.38;;;1.88;;
23496;SDS011;11925;48.122;11.560;2023-11-18T08:50:19;2.80;;;1.90;;
23496;SDS011;11925;48.122;11.560;2023-11-18T08:52:51;3.15;;;1.90;;
23496;SDS011;11925;48.122;11.560;2023-11-18T08:55:27;3.17;;;1.90;;
23496;SDS011;11925;48.122;11.560;2023-11-18T08:58:09;3.80;;;1.85;;
23496;SDS011;11925;48.122;11.560;2023-11-18T09:00:47;4.97;;;1.73;;
23496;SDS011;11925;48.122;11.560;2023-11-18T09:03:20;4.43;;;3.30;;
23496;SDS011;11925;48.122;11.560;2023-11-18T09:05:54;3.53;;;2.60;;
23496;SDS011;11925;48.122;11.560;2023-11-18T09:08:30;3.30;;;2.35;;
23496;SDS011;11925;48.122;11.560;2023-11-18T09:11:03;4.50;;;1.80;;
23496;SDS011;11925;48.122;11.560;2023-11-18T09:13:33;4.55;;;2.35;;
23496;SDS011;11925;48.122;11.560;2023-11-18T09:16:03;2.70;;;1.83;;
23496;SDS011;11925;48.122;11.560;2023-11-18T09:18:35;3.13;;;2.10;;
23496;SDS011;11925;48.122;11.560;2023-11-18T09:21:09;2.20;;;1.58;;
23496;SDS011;11925;48.122;11.560;2023-11-18T09:23:42;2.60;;;1.80;;
23496;SDS011;11925;48.122;11.560;2023-11-18T09:26:13;2.55;;;1.65;;
23496;SDS011;11925;48.122;11.560;2023-11-18T09:31:12;3.38;;;1.60;;
23496;SDS011;11925;48.122;11.560;2023-11-18T09:33:41;2.15;;;1.40;;
23496;SDS011;11925;48.122;11.560;2023-11-18T09:36:13;3.47;;;1.80;;
23496;SDS011;11925;48.122;11.560;2023-11-18T09:38:44;2.63;;;1.52;;
23496;SDS011;11925;48.122;11.560;2023-11-18T09:41:16;5.15;;;1.60;;
23496;SDS011;11925;48.122;11.560;2023-11-18T09:43:45;3.08;;;1.73;;
23496;SDS011;11925;48.122;11.560;2023-11-18T09:46:22;2.60;;;2.03;;
23496;SDS011;11925;48.122;11.560;2023-11-18T09:48:52;2.60;;;1.67;;
23496;SDS011;11925;48.122;11.560;2023-11-18T09:51:27;2.70;;;1.40;;
23496;SDS011;11925;48.122;11.560;2023-11-18T09:53:58;2.95;;;1.48;;
23496;SDS011;11925;48.122;11.560;2023-11-18T09:56:30;2.33;;;1.70;;
23496;SDS011;11925;48.122;11.560;2023-11-18T09:59:07;2.60;;;1.77;;
23496;SDS011;11925;48.122;11.560;2023-11-18T10:01:43;2.65;;;1.30;;
23496;SDS011;11925;48.122;11.560;2023-11-18T10:04:13;2.63;;;1.67;;
23496;SDS011;11925;48.122;11.560;2023-11-18T10:09:14;2.53;;;1.63;;
23496;SDS011;11925;48.122;11.560;2023-11-18T10:11:46;2.33;;;1.50;;
23496;SDS011;11925;48.122;11.560;2023-11-18T10:14:15;2.47;;;1.25;;
23496;SDS011;11925;48.122;11.560;2023-11-18T10:16:44;2.22;;;1.60;;
23496;SDS011;11925;48.122;11.560;2023-11-18T10:19:14;2.70;;;1.67;;
23496;SDS011;11925;48.122;11.560;2023-11-18T10:21:45;2.50;;;1.30;;
23496;SDS011;11925;48.122;11.560;2023-11-18T10:24:16;2.55;;;1.35;;
23496;SDS011;11925;48.122;11.560;2023-11-18T10:26:55;2.57;;;1.40;;
23496;SDS011;11925;48.122;11.560;2023-11-18T10:29:24;2.42;;;1.27;;
23496;SDS011;11925;48.122;11.560;2023-11-18T10:32:03;1.25;;;1.00;;
23496;SDS011;11925;48.122;11.560;2023-11-18T10:34:35;1.90;;;1.27;;
23496;SDS011;11925;48.122;11.560;2023-11-18T10:37:04;1.77;;;1.02;;
23496;SDS011;11925;48.122;11.560;2023-11-18T10:39:33;1.20;;;0.82;;
23496;SDS011;11925;48.122;11.560;2023-11-18T10:42:04;1.65;;;1.00;;
23496;SDS011;11925;48.122;11.560;2023-11-18T10:44:32;2.67;;;0.88;;
23496;SDS011;11925;48.122;11.560;2023-11-18T10:47:01;1.17;;;0.85;;
23496;SDS011;11925;48.122;11.560;2023-11-18T10:49:29;3.88;;;1.10;;
23496;SDS011;11925;48.122;11.560;2023-11-18T10:52:04;1.35;;;0.90;;
23496;SDS011;11925;48.122;11.560;2023-11-18T10:54:35;2.15;;;1.10;;
23496;SDS011;11925;48.122;11.560;2023-11-18T10:57:05;1.80;;;1.00;;
23496;SDS011;11925;48.122;11.560;2023-11-18T10:59:36;1.73;;;1.05;;
23496;SDS011;11925;48.122;11.560;2023-11-18T11:02:30;1.38;;;1.02;;
23496;SDS011;11925;48.122;11.560;2023-11-18T11:05:05;2.40;;;1.10;;
23496;SDS011;11925;48.122;11.560;2023-11-18T11:07:35;2.30;;;1.45;;
23496;SDS011;11925;48.122;11.560;2023-11-18T11:10:05;1.25;;;0.90;;
23496;SDS011;11925;48.122;11.560;2023-11-18T11:12:39;3.25;;;1.23;;
23496;SDS011;11925;48.122;11.560;2023-11-18T11:15:20;2.25;;;1.10;;
23496;SDS011;11925;48.122;11.560;2023-11-18T11:17:52;2.05;;;0.70;;
23496;SDS011;11925;48.122;11.560;2023-11-18T11:20:22;1.23;;;0.80;;
23496;SDS011;11925;48.122;11.560;2023-11-18T11:23:01;1.75;;;0.98;;
23496;SDS011;11925;48.122;11.560;2023-11-18T11:25:51;1.50;;;0.80;;
23496;SDS011;11925;48.122;11.560;2023-11-18T11:28:34;1.73;;;0.85;;
23496;SDS011;11925;48.122;11.560;2023-11-18T11:31:12;1.45;;;0.70;;
23496;SDS011;11925;48.122;11.560;2023-11-18T11:33:46;2.60;;;0.80;;
23496;SDS011;11925;48.122;11.560;2023-11-18T11:36:23;1.58;;;0.52;;
23496;SDS011;11925;48.122;11.560;2023-11-18T11:39:00;1.58;;;0.80;;
23496;SDS011;11925;48.122;11.560;2023-11-18T11:41:29;1.73;;;0.70;;
23496;SDS011;11925;48.122;11.560;2023-11-18T11:44:02;2.25;;;0.60;;
23496;SDS011;11925;48.122;11.560;2023-11-18T11:46:32;1.25;;;0.60;;
23496;SDS011;11925;48.122;11.560;2023-11-18T11:49:04;2.40;;;1.02;;
23496;SDS011;11925;48.122;11.560;2023-11-18T11:51:44;0.63;;;0.50;;
23496;SDS011;11925;48.122;11.560;2023-11-18T11:54:20;1.10;;;0.60;;
23496;SDS011;11925;48.122;11.560;2023-11-18T11:56:55;1.70;;;0.40;;
23496;SDS011;11925;48.122;11.560;2023-11-18T12:02:25;1.45;;;0.70;;
23496;SDS011;11925;48.122;11.560;2023-11-18T12:07:26;2.67;;;0.70;;
23496;SDS011;11925;48.122;11.560;2023-11-18T12:09:55;1.45;;;0.45;;
23496;SDS011;11925;48.122;11.560;2023-11-18T12:12:24;1.40;;;0.70;;
23496;SDS011;11925;48.122;11.560;2023-11-18T12:14:54;3.72;;;1.00;;
23496;SDS011;11925;48.122;11.560;2023-11-18T12:17:32;1.52;;;0.70;;
23496;SDS011;11925;48.122;11.560;2023-11-18T12:20:44;1.13;;;0.73;;
23496;SDS011;11925;48.122;11.560;2023-11-18T12:23:14;2.10;;;0.70;;
23496;SDS011;11925;48.122;11.560;2023-11-18T12:25:44;2.92;;;0.80;;
23496;SDS011;11925;48.122;11.560;2023-11-18T12:28:16;2.60;;;0.80;;
23496;SDS011;11925;48.122;11.560;2023-11-18T12:30:49;2.65;;;0.80;;
23496;SDS011;11925;48.122;11.560;2023-11-18T12:33:23;1.55;;;0.80;;
23496;SDS011;11925;48.122;11.560;2023-11-18T12:39:00;1.40;;;0.90;;
23496;SDS011;11925;48.122;11.560;2023-11-18T12:41:47;4.25;;;1.13;;
23496;SDS011;11925;48.122;11.560;2023-11-18T12:44:27;2.00;;;1.38;;
23496;SDS011;11925;48.122;11.560;2023-11-18T12:47:00;1.80;;;0.88;;
23496;SDS011;11925;48.122;11.560;2023-11-18T12:49:41;1.13;;;0.70;;
23496;SDS011;11925;48.122;11.560;2023-11-18T12:52:10;2.03;;;0.80;;
23496;SDS011;11925;48.122;11.560;2023-11-18T12:54:41;2.05;;;0.95;;
23496;SDS011;11925;48.122;11.560;2023-11-18T12:57:10;4.43;;;2.10;;
23496;SDS011;11925;48.122;11.560;2023-11-18T12:59:41;4.93;;;1.58;;
23496;SDS011;11925;48.122;11.560;2023-11-18T13:04:46;2.75;;;1.20;;
23496;SDS011;11925;48.122;11.560;2023-11-18T13:07:16;2.20;;;1.08;;
23496;SDS011;11925;48.122;11.560;2023-11-18T13:09:45;1.63;;;0.88;;
23496;SDS011;11925;48.122;11.560;2023-11-18T13:12:14;1.70;;;0.90;;
23496;SDS011;11925;48.122;11.560;2023-11-18T13:14:46;2.28;;;0.85;;
23496;SDS011;11925;48.122;11.560;2023-11-18T13:17:16;1.65;;;0.88;;
23496;SDS011;11925;48.122;11.560;2023-11-18T13:19:45;3.45;;;0.93;;
23496;SDS011;11925;48.122;11.560;2023-11-18T13:22:14;1.40;;;1.10;;
23496;SDS011;11925;48.122;11.560;2023-11-18T13:24:45;1.98;;;0.98;;
23496;SDS011;11925;48.122;11.560;2023-11-18T13:27:16;1.85;;;0.70;;
23496;SDS011;11925;48.122;11.560;2023-11-18T13:29:47;1.20;;;0.70;;
23496;SDS011;11925;48.122;11.560;2023-11-18T13:32:18;1.48;;;0.70;;
23496;SDS011;11925;48.122;11.560;2023-11-18T13:34:50;2.55;;;1.00;;
23496;SDS011;11925;48.122;11.560;2023-11-18T13:37:19;3.08;;;1.00;;
23496;SDS011;11925;48.122;11.560;2023-11-18T13:39:53;4.38;;;1.60;;
23496;SDS011;11925;48.122;11.560;2023-11-18T13:42:22;3.90;;;1.30;;
23496;SDS011;11925;48.122;11.560;2023-11-18T13:44:52;3.47;;;1.70;;
23496;SDS011;11925;48.122;11.560;2023-11-18T13:47:22;2.03;;;1.23;;
23496;SDS011;11925;48.122;11.560;2023-11-18T13:49:53;2.42;;;1.08;;
23496;SDS011;11925;48.122;11.560;2023-11-18T13:52:25;4.43;;;1.50;;
23496;SDS011;11925;48.122;11.560;2023-11-18T13:54:53;4.53;;;0.95;;
23496;SDS011;11925;48.122;11.560;2023-11-18T13:57:23;264.92;;;134.48;;
23496;SDS011;11925;48.122;11.560;2023-11-18T13:59:52;269.42;;;137.75;;
23496;SDS011;11925;48.122;11.560;2023-11-18T14:02:22;268.05;;;142.05;;
23496;SDS011;11925;48.122;11.560;2023-11-18T14:04:51;292.00;;;153.23;;
23496;SDS011;11925;48.122;11.560;2023-11-18T14:07:22;228.32;;;115.55;;
23496;SDS011;11925;48.122;11.560;2023-11-18T14:09:51;222.70;;;108.43;;
23496;SDS011;11925;48.122;11.560;2023-11-18T14:12:23;133.05;;;65.15;;
23496;SDS011;11925;48.122;11.560;2023-11-18T14:14:54;93.68;;;46.15;;
23496;SDS011;11925;48.122;11.560;2023-11-18T14:17:24;96.30;;;47.38;;
23496;SDS011;11925;48.122;11.560;2023-11-18T14:19:52;221.15;;;114.93;;
23496;SDS011;11925;48.122;11.560;2023-11-18T14:22:21;250.20;;;131.20;;
23496;SDS011;11925;48.122;11.560;2023-11-18T14:24:49;315.08;;;171.98;;
23496;SDS011;11925;48.122;11.560;2023-11-18T14:27:18;337.33;;;169.25;;
23496;SDS011;11925;48.122;11.560;2023-11-18T14:29:46;214.57;;;110.35;;
23496;SDS011;11925;48.122;11.560;2023-11-18T14:32:15;185.48;;;97.78;;
23496;SDS011;11925;48.122;11.560;2023-11-18T14:34:45;167.00;;;83.15;;
23496;SDS011;11925;48.122;11.560;2023-11-18T14:37:15;124.85;;;61.47;;
23496;SDS011;11925;48.122;11.560;2023-11-18T14:39:45;108.43;;;55.80;;
23496;SDS011;11925;48.122;11.560;2023-11-18T14:42:14;240.70;;;118.93;;
23496;SDS011;11925;48.122;11.560;2023-11-18T14:44:43;224.18;;;110.53;;
23496;SDS011;11925;48.122;11.560;2023-11-18T14:47:11;310.85;;;163.38;;
23496;SDS011;11925;48.122;11.560;2023-11-18T14:49:39;467.92;;;247.63;;
23496;SDS011;11925;48.122;11.560;2023-11-18T14:52:11;256.50;;;127.45;;
23496;SDS011;11925;48.122;11.560;2023-11-18T14:54:39;216.25;;;111.28;;
23496;SDS011;11925;48.122;11.560;2023-11-18T14:57:08;206.65;;;101.80;;
23496;SDS011;11925;48.122;11.560;2023-11-18T14:59:37;173.43;;;87.00;;
23496;SDS011;11925;48.122;11.560;2023-11-18T15:02:05;133.02;;;66.53;;
23496;SDS011;11925;48.122;11.560;2023-11-18T15:04:34;126.47;;;61.97;;
23496;SDS011;11925;48.122;11.560;2023-11-18T15:07:03;74.22;;;38.47;;